createdAt,value
2019-05-29T00:00:56.997Z,21.31
2019-05-29T00:03:26.420Z,21.29
2019-05-29T00:05:55.847Z,21.24
2019-05-29T00:08:25.292Z,21.16
2019-05-29T00:10:54.732Z,21.11
2019-05-29T00:13:24.168Z,21.07
2019-05-29T00:15:53.605Z,21.07
2019-05-29T00:18:23.044Z,21.03
2019-05-29T00:20:52.462Z,21.03
2019-05-29T00:23:21.914Z,20.94
2019-05-29T00:25:51.345Z,20.88
2019-05-29T00:28:20.775Z,20.87
2019-05-29T00:30:50.317Z,20.91
2019-05-29T00:33:19.741Z,20.89
2019-05-29T00:35:49.180Z,20.91
2019-05-29T00:38:18.615Z,20.89
2019-05-29T00:40:48.046Z,20.90
2019-05-29T00:43:17.660Z,20.94
2019-05-29T00:45:47.113Z,20.94
2019-05-29T00:48:16.535Z,20.94
2019-05-29T00:50:46.026Z,20.93
2019-05-29T00:53:16.361Z,20.90
2019-05-29T00:55:45.884Z,20.86
2019-05-29T00:58:15.339Z,20.77
2019-05-29T01:00:44.773Z,20.71
2019-05-29T01:03:14.204Z,20.68
2019-05-29T01:05:43.657Z,20.63
2019-05-29T01:08:14.406Z,20.58
2019-05-29T01:10:43.978Z,20.54
2019-05-29T01:13:13.419Z,20.49
2019-05-29T01:15:42.868Z,20.42
2019-05-29T01:18:12.298Z,20.39
2019-05-29T01:20:41.735Z,20.37
2019-05-29T01:23:12.120Z,20.32
2019-05-29T01:25:41.616Z,20.26
2019-05-29T01:28:11.036Z,20.20
2019-05-29T01:30:40.473Z,20.18
2019-05-29T01:33:09.989Z,20.11
2019-05-29T01:35:39.420Z,20.06
2019-05-29T01:38:08.946Z,20.02
2019-05-29T01:40:38.518Z,19.99
2019-05-29T01:43:08.066Z,19.92
2019-05-29T01:45:37.631Z,19.91
2019-05-29T01:48:07.240Z,19.88
2019-05-29T01:50:36.992Z,19.90
2019-05-29T01:53:06.633Z,19.89
2019-05-29T01:55:36.271Z,19.88
2019-05-29T01:58:05.702Z,19.87
2019-05-29T02:00:35.146Z,19.85
2019-05-29T02:03:04.573Z,19.77
2019-05-29T02:05:34.009Z,19.78
2019-05-29T02:08:03.417Z,19.77
2019-05-29T02:10:32.986Z,19.69
2019-05-29T02:13:02.472Z,19.73
2019-05-29T02:15:33.956Z,19.69
2019-05-29T02:18:03.321Z,19.68
2019-05-29T02:20:32.928Z,19.64
2019-05-29T02:23:02.378Z,19.61
2019-05-29T02:25:31.803Z,19.55
2019-05-29T02:28:04.146Z,19.52
2019-05-29T02:30:33.682Z,19.47
2019-05-29T02:33:03.258Z,19.45
2019-05-29T02:35:32.798Z,19.45
2019-05-29T02:38:02.311Z,19.44
2019-05-29T02:40:31.739Z,19.43
2019-05-29T02:43:01.254Z,19.42
2019-05-29T02:45:52.078Z,19.39
2019-05-29T02:48:02.059Z,19.38
2019-05-29T02:50:31.466Z,19.45
2019-05-29T02:53:01.009Z,19.42
2019-05-29T02:55:31.013Z,19.39
2019-05-29T02:58:00.811Z,19.43
2019-05-29T03:00:52.972Z,19.48
2019-05-29T03:03:23.958Z,19.53
2019-05-29T03:05:54.684Z,19.55
2019-05-29T03:08:24.781Z,19.56
2019-05-29T03:10:56.225Z,19.58
2019-05-29T03:13:27.440Z,19.58
2019-05-29T03:16:09.909Z,19.62
2019-05-29T03:18:30.017Z,19.72
2019-05-29T03:20:59.833Z,19.82
2019-05-29T03:23:30.969Z,19.89
2019-05-29T03:26:01.120Z,20.01
2019-05-29T03:28:32.450Z,20.17
2019-05-29T03:31:02.130Z,20.28
2019-05-29T03:33:39.316Z,20.44
2019-05-29T03:36:02.942Z,20.57
2019-05-29T03:38:33.215Z,20.76
2019-05-29T03:41:03.718Z,20.95
2019-05-29T03:43:35.774Z,21.12
2019-05-29T03:46:04.583Z,21.23
2019-05-29T03:48:34.528Z,21.35
2019-05-29T03:51:04.068Z,21.62
2019-05-29T03:53:34.288Z,21.86
2019-05-29T03:56:04.859Z,22.04
2019-05-29T03:58:35.153Z,22.21
2019-05-29T04:01:05.408Z,22.36
2019-05-29T04:03:35.720Z,22.48
2019-05-29T04:06:06.563Z,22.87
2019-05-29T04:08:38.251Z,23.54
2019-05-29T04:11:07.534Z,24.95
2019-05-29T04:13:38.950Z,26.23
2019-05-29T04:16:08.193Z,27.27
2019-05-29T04:18:38.197Z,28.47
2019-05-29T04:21:07.808Z,29.92
2019-05-29T04:23:38.312Z,31.23
2019-05-29T04:26:07.885Z,32.43
2019-05-29T04:28:39.000Z,33.55
2019-05-29T04:31:08.661Z,34.11
2019-05-29T04:33:38.898Z,34.37
2019-05-29T04:36:08.445Z,35.04
2019-05-29T04:38:40.204Z,36.29
2019-05-29T04:41:09.130Z,36.29
2019-05-29T04:43:39.872Z,36.94
2019-05-29T04:46:09.633Z,37.27
2019-05-29T04:48:40.379Z,37.75
2019-05-29T04:51:10.081Z,37.51
2019-05-29T04:53:40.023Z,37.32
2019-05-29T04:56:09.713Z,37.74
2019-05-29T04:58:39.309Z,38.41
2019-05-29T05:01:08.950Z,39.10
2019-05-29T05:03:39.419Z,39.37
2019-05-29T05:06:09.094Z,39.98
2019-05-29T05:08:39.670Z,40.45
2019-05-29T05:11:10.147Z,40.75
2019-05-29T05:13:39.818Z,40.41
2019-05-29T05:16:09.392Z,40.47
2019-05-29T05:18:40.051Z,40.11
2019-05-29T05:21:09.894Z,40.03
2019-05-29T05:23:40.585Z,40.82
2019-05-29T05:26:10.227Z,41.09
2019-05-29T05:28:43.327Z,41.23
2019-05-29T05:31:11.140Z,42.01
2019-05-29T05:33:41.050Z,41.89
2019-05-29T05:36:10.648Z,41.77
2019-05-29T05:38:41.026Z,41.68
2019-05-29T05:41:10.782Z,41.80
2019-05-29T05:43:41.373Z,41.83
2019-05-29T05:46:11.041Z,42.08
2019-05-29T05:48:41.566Z,41.89
2019-05-29T05:51:11.347Z,41.77
2019-05-29T05:53:41.726Z,42.76
2019-05-29T05:56:11.484Z,43.39
2019-05-29T05:58:42.285Z,43.40
2019-05-29T06:01:11.932Z,42.45
2019-05-29T06:03:42.413Z,42.73
2019-05-29T06:06:12.530Z,43.14
2019-05-29T06:08:42.455Z,43.07
2019-05-29T06:11:12.222Z,42.47
2019-05-29T06:13:42.731Z,41.41
2019-05-29T06:16:12.577Z,40.35
2019-05-29T06:18:42.974Z,40.43
2019-05-29T06:21:12.931Z,41.04
2019-05-29T06:23:43.431Z,41.33
2019-05-29T06:26:13.582Z,41.34
2019-05-29T06:28:43.661Z,41.78
2019-05-29T06:31:13.214Z,40.56
2019-05-29T06:33:43.984Z,38.97
2019-05-29T06:36:13.900Z,37.25
2019-05-29T06:38:44.273Z,36.15
2019-05-29T06:41:13.990Z,35.06
2019-05-29T06:43:44.408Z,34.73
2019-05-29T06:46:14.263Z,35.49
2019-05-29T06:48:56.425Z,35.29
2019-05-29T06:51:15.317Z,34.40
2019-05-29T06:53:44.951Z,33.68
2019-05-29T06:56:15.268Z,33.45
2019-05-29T06:58:45.489Z,33.36
2019-05-29T07:01:15.014Z,33.37
2019-05-29T07:03:44.433Z,34.17
2019-05-29T07:06:14.018Z,36.16
2019-05-29T07:08:47.890Z,37.54
2019-05-29T07:11:14.797Z,38.57
2019-05-29T07:13:47.521Z,37.76
2019-05-29T07:16:15.403Z,36.84
2019-05-29T07:19:20.597Z,36.09
2019-05-29T07:21:16.029Z,35.62
2019-05-29T07:23:47.913Z,35.46
2019-05-29T07:26:16.911Z,35.62
2019-05-29T07:29:03.497Z,35.49
2019-05-29T07:31:17.669Z,34.73
2019-05-29T07:33:47.490Z,34.73
2019-05-29T07:36:16.992Z,34.70
2019-05-29T07:39:02.010Z,34.86
2019-05-29T07:41:17.850Z,34.49
2019-05-29T07:43:48.112Z,33.75
2019-05-29T07:46:17.665Z,33.43
2019-05-29T07:48:48.565Z,33.16
2019-05-29T07:51:18.441Z,33.01
2019-05-29T07:53:48.817Z,32.92
2019-05-29T07:56:22.673Z,32.94
2019-05-29T07:59:01.600Z,32.85
2019-05-29T08:01:20.997Z,34.26
2019-05-29T08:03:50.667Z,34.26
2019-05-29T08:06:20.109Z,35.02
2019-05-29T08:08:49.686Z,35.17
2019-05-29T08:11:19.111Z,35.16
2019-05-29T08:13:49.876Z,34.49
2019-05-29T08:16:19.720Z,34.26
2019-05-29T08:18:52.730Z,34.30
2019-05-29T08:21:20.494Z,34.60
2019-05-29T08:23:50.820Z,34.68
2019-05-29T08:26:20.570Z,34.55
2019-05-29T08:28:51.168Z,34.69
2019-05-29T08:31:20.879Z,34.33
2019-05-29T08:33:51.287Z,33.86
2019-05-29T08:36:21.134Z,33.61
2019-05-29T08:38:51.734Z,33.20
2019-05-29T08:41:21.424Z,33.03
2019-05-29T08:43:51.083Z,32.66
2019-05-29T08:46:20.560Z,32.14
2019-05-29T08:48:50.250Z,31.90
2019-05-29T08:51:19.799Z,31.95
2019-05-29T08:53:51.982Z,31.89
2019-05-29T08:56:20.526Z,31.89
2019-05-29T08:58:50.655Z,31.89
2019-05-29T09:01:20.348Z,31.88
2019-05-29T09:03:51.201Z,31.96
2019-05-29T09:06:21.414Z,32.02
2019-05-29T09:08:54.000Z,31.97
2019-05-29T09:11:22.333Z,31.79
2019-05-29T09:13:51.910Z,31.80
2019-05-29T09:16:21.952Z,32.29
2019-05-29T09:18:51.476Z,32.29
2019-05-29T09:21:20.899Z,32.26
2019-05-29T09:23:50.335Z,32.12
2019-05-29T09:26:23.894Z,31.57
2019-05-29T09:28:51.226Z,31.57
2019-05-29T09:31:22.171Z,31.64
2019-05-29T09:33:51.718Z,31.66
2019-05-29T09:36:22.621Z,31.91
2019-05-29T09:38:52.497Z,32.39
2019-05-29T09:41:23.579Z,32.67
2019-05-29T09:43:59.186Z,32.67
2019-05-29T09:46:25.785Z,32.38
2019-05-29T09:48:55.264Z,32.34
2019-05-29T09:51:24.738Z,32.38
2019-05-29T09:53:55.720Z,32.25
2019-05-29T09:56:25.662Z,32.38
2019-05-29T09:58:56.368Z,32.61
2019-05-29T10:01:26.381Z,32.99
2019-05-29T10:03:57.547Z,33.57
2019-05-29T10:06:27.194Z,33.94
2019-05-29T10:08:57.947Z,34.36
2019-05-29T10:11:27.750Z,34.59
2019-05-29T10:13:58.755Z,35.11
2019-05-29T10:16:28.833Z,35.15
2019-05-29T10:18:59.761Z,34.99
2019-05-29T10:21:40.182Z,34.35
2019-05-29T10:24:01.973Z,33.87
2019-05-29T10:26:31.767Z,33.54
2019-05-29T10:29:08.339Z,33.34
2019-05-29T10:31:32.762Z,33.03
2019-05-29T10:34:02.199Z,32.58
2019-05-29T10:36:31.648Z,32.28
2019-05-29T10:39:01.061Z,32.07
2019-05-29T10:41:30.532Z,31.85
2019-05-29T10:43:59.976Z,31.71
2019-05-29T10:46:29.409Z,32.50
2019-05-29T10:48:58.935Z,32.50
2019-05-29T10:51:28.543Z,33.90
2019-05-29T10:53:59.219Z,34.98
2019-05-29T10:56:28.808Z,35.19
2019-05-29T10:59:00.075Z,34.76
2019-05-29T11:01:29.853Z,34.70
2019-05-29T11:03:59.358Z,34.47
2019-05-29T11:06:28.936Z,34.19
2019-05-29T11:08:58.625Z,33.83
2019-05-29T11:11:28.196Z,33.50
2019-05-29T11:13:57.733Z,33.34
2019-05-29T11:16:27.160Z,33.38
2019-05-29T11:18:57.581Z,33.64
2019-05-29T11:21:27.331Z,34.69
2019-05-29T11:23:58.033Z,35.59
2019-05-29T11:26:27.783Z,36.48
2019-05-29T11:28:58.626Z,37.22
2019-05-29T11:31:28.366Z,37.30
2019-05-29T11:33:59.102Z,37.60
2019-05-29T11:36:28.800Z,38.35
2019-05-29T11:39:03.279Z,38.98
2019-05-29T11:41:29.628Z,39.17
2019-05-29T11:43:59.042Z,39.36
2019-05-29T11:46:28.554Z,38.97
2019-05-29T11:48:59.340Z,38.75
2019-05-29T11:51:28.961Z,39.24
2019-05-29T11:53:59.583Z,39.44
2019-05-29T11:56:29.148Z,39.48
2019-05-29T11:58:59.033Z,38.83
2019-05-29T12:01:28.672Z,38.17
2019-05-29T12:04:21.895Z,38.59
2019-05-29T12:06:29.564Z,38.54
2019-05-29T12:08:59.858Z,38.71
2019-05-29T12:11:29.332Z,38.85
2019-05-29T12:14:00.522Z,38.92
2019-05-29T12:16:30.147Z,38.21
2019-05-29T12:18:59.898Z,37.95
2019-05-29T12:21:29.571Z,37.28
2019-05-29T12:24:00.242Z,36.41
2019-05-29T12:26:29.814Z,35.57
2019-05-29T12:29:07.135Z,35.30
2019-05-29T12:31:30.477Z,34.76
2019-05-29T12:34:12.765Z,34.59
2019-05-29T12:36:31.465Z,34.20
2019-05-29T12:39:02.168Z,33.78
2019-05-29T12:41:32.272Z,33.94
2019-05-29T12:44:01.886Z,34.69
2019-05-29T12:46:31.514Z,34.92
2019-05-29T12:49:01.688Z,34.55
2019-05-29T12:51:31.526Z,34.76
2019-05-29T12:54:02.313Z,35.64
2019-05-29T12:56:31.987Z,37.08
2019-05-29T12:59:02.668Z,37.53
2019-05-29T13:01:32.260Z,36.87
2019-05-29T13:04:02.428Z,36.27
2019-05-29T13:06:32.082Z,36.80
2019-05-29T13:09:02.650Z,36.97
2019-05-29T13:11:32.328Z,36.70
2019-05-29T13:14:02.703Z,37.30
2019-05-29T13:16:32.397Z,38.02
2019-05-29T13:19:03.283Z,37.66
2019-05-29T13:21:33.117Z,38.02
2019-05-29T13:24:04.023Z,37.31
2019-05-29T13:26:33.825Z,36.59
2019-05-29T13:29:03.936Z,36.26
2019-05-29T13:31:33.862Z,36.12
2019-05-29T13:34:04.418Z,35.56
2019-05-29T13:36:34.110Z,34.88
2019-05-29T13:39:04.850Z,34.20
2019-05-29T13:41:34.417Z,34.16
2019-05-29T13:44:04.807Z,34.50
2019-05-29T13:46:34.483Z,34.08
2019-05-29T13:49:05.025Z,34.29
2019-05-29T13:51:34.584Z,34.80
2019-05-29T13:54:13.362Z,34.61
2019-05-29T13:56:35.297Z,34.38
2019-05-29T13:59:06.573Z,34.04
2019-05-29T14:01:36.248Z,33.65
2019-05-29T14:04:06.835Z,33.17
2019-05-29T14:06:36.297Z,32.88
2019-05-29T14:09:09.526Z,32.33
2019-05-29T14:11:39.206Z,31.80
2019-05-29T14:14:11.216Z,31.53
2019-05-29T14:16:39.941Z,31.41
2019-05-29T14:19:09.506Z,31.02
2019-05-29T14:21:39.053Z,30.76
2019-05-29T14:24:26.769Z,30.76
2019-05-29T14:26:39.708Z,30.64
2019-05-29T14:29:10.070Z,30.67
2019-05-29T14:31:39.584Z,30.68
2019-05-29T14:34:09.617Z,30.67
2019-05-29T14:36:39.124Z,30.60
2019-05-29T14:39:09.992Z,30.59
2019-05-29T14:41:39.479Z,30.45
2019-05-29T14:44:10.013Z,30.37
2019-05-29T14:46:39.804Z,30.36
2019-05-29T14:49:10.759Z,30.25
2019-05-29T14:51:40.411Z,30.18
2019-05-29T14:54:11.070Z,30.05
2019-05-29T14:56:40.580Z,29.87
2019-05-29T14:59:11.094Z,29.80
2019-05-29T15:01:40.733Z,29.83
2019-05-29T15:04:12.653Z,29.90
2019-05-29T15:06:41.380Z,29.92
2019-05-29T15:09:11.763Z,29.87
2019-05-29T15:11:41.379Z,29.85
2019-05-29T15:14:10.795Z,29.79
2019-05-29T15:16:40.222Z,29.71
2019-05-29T15:19:11.005Z,29.72
2019-05-29T15:21:40.689Z,29.75
2019-05-29T15:24:11.524Z,29.78
2019-05-29T15:26:41.072Z,29.78
2019-05-29T15:29:13.274Z,29.59
2019-05-29T15:31:41.741Z,29.45
2019-05-29T15:34:12.283Z,29.54
2019-05-29T15:36:41.860Z,29.64
2019-05-29T15:39:11.274Z,29.71
2019-05-29T15:41:40.696Z,29.69
2019-05-29T15:44:10.861Z,29.66
2019-05-29T15:46:40.344Z,29.58
2019-05-29T15:49:11.103Z,29.53
2019-05-29T15:51:40.563Z,29.40
2019-05-29T15:54:11.200Z,29.27
2019-05-29T15:56:41.551Z,29.13
2019-05-29T15:59:12.123Z,28.98
2019-05-29T16:01:42.103Z,28.92
2019-05-29T16:04:11.746Z,28.80
2019-05-29T16:06:41.255Z,28.78
2019-05-29T16:09:10.718Z,28.83
2019-05-29T16:11:40.119Z,28.85
2019-05-29T16:14:10.669Z,28.88
2019-05-29T16:16:40.166Z,28.82
2019-05-29T16:19:10.131Z,28.77
2019-05-29T16:21:39.605Z,28.69
2019-05-29T16:24:09.057Z,28.61
2019-05-29T16:26:38.475Z,28.50
2019-05-29T16:29:07.961Z,28.41
2019-05-29T16:31:37.420Z,28.31
2019-05-29T16:34:06.927Z,28.20
2019-05-29T16:36:36.373Z,28.07
2019-05-29T16:39:07.803Z,27.95
2019-05-29T16:41:37.425Z,27.83
2019-05-29T16:44:06.950Z,27.69
2019-05-29T16:46:36.666Z,27.57
2019-05-29T16:49:06.107Z,27.35
2019-05-29T16:51:35.536Z,27.19
2019-05-29T16:54:04.975Z,27.00
2019-05-29T16:56:34.412Z,26.86
2019-05-29T16:59:03.955Z,26.67
2019-05-29T17:01:33.397Z,26.53
2019-05-29T17:04:02.816Z,26.46
2019-05-29T17:06:32.257Z,26.39
2019-05-29T17:09:01.709Z,26.33
2019-05-29T17:11:31.322Z,26.26
2019-05-29T17:14:00.730Z,26.19
2019-05-29T17:16:30.147Z,26.14
2019-05-29T17:18:59.623Z,26.13
2019-05-29T17:21:29.089Z,26.05
2019-05-29T17:23:58.499Z,26.01
2019-05-29T17:26:27.958Z,25.97
2019-05-29T17:28:57.481Z,25.93
2019-05-29T17:31:26.937Z,25.85
2019-05-29T17:33:56.373Z,25.80
2019-05-29T17:36:28.688Z,25.76
2019-05-29T17:38:57.146Z,25.69
2019-05-29T17:41:26.853Z,25.62
2019-05-29T17:43:56.318Z,25.59
2019-05-29T17:46:25.920Z,25.57
2019-05-29T17:48:55.375Z,25.55
2019-05-29T17:51:26.071Z,25.50
2019-05-29T17:53:55.832Z,25.40
2019-05-29T17:56:35.809Z,25.30
2019-05-29T17:58:56.502Z,25.19
2019-05-29T18:01:26.352Z,25.08
2019-05-29T18:03:57.113Z,25.02
2019-05-29T18:06:26.604Z,24.95
2019-05-29T18:08:56.023Z,24.89
2019-05-29T18:11:25.447Z,24.82
2019-05-29T18:13:54.942Z,24.76
2019-05-29T18:16:25.587Z,24.69
2019-05-29T18:18:55.130Z,24.63
2019-05-29T18:21:25.656Z,24.56
2019-05-29T18:23:55.265Z,24.49
2019-05-29T18:26:24.711Z,24.43
2019-05-29T18:28:54.587Z,24.38
2019-05-29T18:31:24.486Z,24.34
2019-05-29T18:33:54.018Z,24.29
2019-05-29T18:36:23.604Z,24.26
2019-05-29T18:38:53.143Z,24.22
2019-05-29T18:41:22.617Z,24.18
2019-05-29T18:43:52.039Z,24.11
2019-05-29T18:46:21.473Z,24.03
2019-05-29T18:48:50.928Z,23.94
2019-05-29T18:51:20.494Z,23.80
2019-05-29T18:53:53.333Z,23.73
2019-05-29T18:56:23.990Z,23.60
2019-05-29T18:58:53.462Z,23.56
2019-05-29T19:01:23.459Z,23.50
2019-05-29T19:03:53.006Z,23.47
2019-05-29T19:06:25.539Z,23.45
2019-05-29T19:08:55.120Z,23.38
2019-05-29T19:11:25.866Z,23.31
2019-05-29T19:13:55.432Z,23.25
2019-05-29T19:16:26.318Z,23.18
2019-05-29T19:18:56.014Z,23.10
2019-05-29T19:21:26.386Z,23.04
2019-05-29T19:23:55.867Z,22.99
2019-05-29T19:26:26.692Z,22.94
2019-05-29T19:28:56.312Z,22.89
2019-05-29T19:31:27.062Z,22.84
2019-05-29T19:33:57.905Z,22.78
2019-05-29T19:36:29.890Z,22.74
2019-05-29T19:38:59.634Z,22.70
2019-05-29T19:41:30.107Z,22.68
2019-05-29T19:43:59.637Z,22.63
2019-05-29T19:46:30.749Z,22.62
2019-05-29T19:49:00.621Z,22.63
2019-05-29T19:51:31.408Z,22.61
2019-05-29T19:54:00.901Z,22.61
2019-05-29T19:56:30.351Z,22.58
2019-05-29T19:58:59.888Z,22.53
2019-05-29T20:01:35.375Z,22.49
2019-05-29T20:04:00.523Z,22.44
2019-05-29T20:06:30.977Z,22.37
2019-05-29T20:09:00.506Z,22.34
2019-05-29T20:11:29.982Z,22.30
2019-05-29T20:13:59.429Z,22.25
2019-05-29T20:16:30.000Z,22.21
2019-05-29T20:18:59.523Z,22.17
2019-05-29T20:21:28.985Z,22.10
2019-05-29T20:23:58.438Z,22.03
2019-05-29T20:26:29.116Z,22.00
2019-05-29T20:28:58.669Z,21.96
2019-05-29T20:31:28.110Z,21.90
2019-05-29T20:33:57.736Z,21.87
2019-05-29T20:36:27.189Z,21.82
2019-05-29T20:38:56.827Z,21.62
2019-05-29T20:41:26.506Z,21.89
2019-05-29T20:43:55.947Z,21.94
2019-05-29T20:46:25.389Z,22.01
2019-05-29T20:48:54.843Z,22.13
2019-05-29T20:51:24.280Z,22.18
2019-05-29T20:53:53.769Z,22.27
2019-05-29T20:56:23.296Z,22.31
2019-05-29T20:58:52.731Z,22.36
2019-05-29T21:01:22.182Z,22.38
2019-05-29T21:03:51.629Z,22.36
2019-05-29T21:06:21.146Z,22.38
2019-05-29T21:08:50.584Z,22.36
2019-05-29T21:11:20.033Z,22.35
2019-05-29T21:13:49.452Z,22.38
2019-05-29T21:16:18.926Z,22.37
2019-05-29T21:18:48.344Z,22.37
2019-05-29T21:21:17.758Z,22.37
2019-05-29T21:23:47.183Z,22.37
2019-05-29T21:26:16.687Z,22.36
2019-05-29T21:28:50.459Z,22.34
2019-05-29T21:31:17.267Z,22.27
2019-05-29T21:33:49.249Z,22.31
2019-05-29T21:36:17.874Z,22.38
2019-05-29T21:38:47.331Z,22.37
2019-05-29T21:41:16.773Z,22.43
2019-05-29T21:43:47.024Z,22.44
2019-05-29T21:46:16.541Z,22.41
2019-05-29T21:48:47.333Z,22.39
2019-05-29T21:51:17.052Z,22.38
2019-05-29T21:53:47.618Z,22.32
2019-05-29T21:56:17.241Z,22.25
2019-05-29T21:58:59.891Z,22.14
2019-05-29T22:01:17.927Z,21.95
2019-05-29T22:03:48.719Z,21.75
2019-05-29T22:06:18.272Z,21.64
2019-05-29T22:08:47.700Z,21.49
2019-05-29T22:11:17.252Z,21.29
2019-05-29T22:13:46.680Z,21.15
2019-05-29T22:16:16.100Z,21.02
2019-05-29T22:18:45.543Z,20.94
2019-05-29T22:21:14.983Z,20.80
2019-05-29T22:23:44.410Z,20.73
2019-05-29T22:26:13.914Z,20.62
2019-05-29T22:28:43.357Z,20.60
2019-05-29T22:31:12.791Z,20.54
2019-05-29T22:33:42.256Z,20.48
2019-05-29T22:36:11.661Z,20.37
2019-05-29T22:38:41.115Z,20.31
2019-05-29T22:41:10.571Z,20.24
2019-05-29T22:43:40.014Z,20.20
2019-05-29T22:46:09.427Z,20.13
2019-05-29T22:48:38.861Z,20.11
2019-05-29T22:51:08.305Z,20.10
2019-05-29T22:53:37.791Z,20.04
2019-05-29T22:56:07.206Z,20.01
2019-05-29T22:58:36.722Z,20.03
2019-05-29T23:01:06.225Z,20.03
2019-05-29T23:03:35.673Z,20.12
2019-05-29T23:06:05.125Z,20.24
2019-05-29T23:08:34.551Z,20.34
2019-05-29T23:11:04.058Z,20.42
2019-05-29T23:13:33.489Z,20.47
2019-05-29T23:16:02.959Z,20.50
2019-05-29T23:18:32.368Z,20.47
2019-05-29T23:21:02.718Z,20.48
2019-05-29T23:23:32.221Z,20.47
2019-05-29T23:26:02.849Z,20.53
2019-05-29T23:28:32.606Z,20.54
2019-05-29T23:31:03.069Z,20.62
2019-05-29T23:33:32.568Z,20.68
2019-05-29T23:36:03.179Z,20.72
2019-05-29T23:38:32.902Z,20.77
2019-05-29T23:41:03.654Z,20.84
2019-05-29T23:43:33.271Z,20.87
2019-05-29T23:46:03.936Z,20.87
2019-05-29T23:48:33.437Z,20.87
2019-05-29T23:51:03.800Z,20.89
2019-05-29T23:53:33.272Z,20.92
2019-05-29T23:56:03.906Z,20.91
2019-05-29T23:58:33.531Z,20.93
